Time;durP1;ratioP1;P1;durP2;ratioP2;P2;SDS_P1;SDS_P2;PMS_P1;PMS_P2;Temp;Humidity;BMP_temperature;BMP_pressure;BME280_temperature;BME280_humidity;BME280_pressure;Samples;Min_cycle;Max_cycle;Signal;HPM_P1;HPM_P2
2021/06/19 00:04:09;;;;;;;12.43;9.58;;;;;;;25.29;45.19;100707.80;4966257;58;1140824;-83
2021/06/19 00:09:14;;;;;;;17.30;10.40;;;;;;;25.22;45.29;100701.55;4966295;58;1140790;-80
2021/06/19 00:14:20;;;;;;;10.98;8.70;;;;;;;25.17;45.50;100700.84;4922883;57;1142820;-79
2021/06/19 00:19:26;;;;;;;15.15;9.90;;;;;;;25.16;45.65;100701.89;4893887;57;1140778;-79
2021/06/19 00:24:39;;;;;;;20.48;9.80;;;;;;;25.14;45.80;100702.62;4876053;58;1140954;-80
2021/06/19 00:29:45;;;;;;;17.45;9.38;;;;;;;25.10;45.94;100701.87;4891725;59;1140726;-77
2021/06/19 00:34:51;;;;;;;17.92;10.23;;;;;;;25.03;46.13;100711.89;4902728;57;1141003;-79
2021/06/19 00:39:57;;;;;;;21.95;10.23;;;;;;;24.86;46.77;100708.73;4915247;57;1142987;-81
2021/06/19 00:45:05;;;;;;;16.25;10.48;;;;;;;24.73;46.96;100713.62;4915274;57;1142732;-79
2021/06/19 00:50:12;;;;;;;17.30;10.05;;;;;;;24.65;47.30;100708.91;4915389;57;1142914;-79
2021/06/19 00:55:19;;;;;;;18.00;10.85;;;;;;;24.58;47.70;100721.09;4915576;57;1142846;-80
2021/06/19 01:00:27;;;;;;;16.37;10.80;;;;;;;24.53;48.09;100714.94;4924692;57;1143226;-80
2021/06/19 01:05:33;;;;;;;12.75;9.83;;;;;;;24.52;48.13;100712.44;4911674;57;1142973;-78
2021/06/19 01:10:39;;;;;;;19.07;10.95;;;;;;;24.46;48.55;100718.13;4915547;57;1140679;-80
2021/06/19 01:15:45;;;;;;;17.98;9.83;;;;;;;24.38;48.92;100716.98;4914796;57;1142826;-83
2021/06/19 01:20:51;;;;;;;11.73;10.48;;;;;;;24.31;49.08;100720.69;4914791;58;1140699;-78
2021/06/19 01:25:57;;;;;;;18.37;9.80;;;;;;;24.25;49.32;100716.95;4914661;58;1142901;-79
2021/06/19 01:31:03;;;;;;;14.07;10.43;;;;;;;24.19;49.69;100716.37;4902837;58;1140771;-83
2021/06/19 01:36:10;;;;;;;10.43;9.25;;;;;;;24.16;49.55;100720.30;4913515;58;1142800;-79
2021/06/19 01:41:19;;;;;;;18.15;10.72;;;;;;;24.10;49.99;100718.43;4912691;58;1140742;-78
2021/06/19 01:46:24;;;;;;;19.25;9.83;;;;;;;24.03;49.77;100716.20;4912435;58;1142850;-82
2021/06/19 01:51:31;;;;;;;15.18;9.63;;;;;;;24.01;49.82;100714.22;4912874;58;1141299;-80
2021/06/19 01:56:37;;;;;;;13.45;9.58;;;;;;;23.97;49.87;100720.25;4912786;58;1140728;-80
2021/06/19 02:01:45;;;;;;;10.32;9.30;;;;;;;23.93;50.56;100718.98;4913027;58;1140736;-81
2021/06/19 02:06:51;;;;;;;23.18;11.35;;;;;;;23.85;50.07;100731.60;4912717;58;1140673;-80
2021/06/19 02:11:56;;;;;;;13.85;10.20;;;;;;;23.80;50.36;100735.95;4912329;58;1142846;-78
2021/06/19 02:17:02;;;;;;;13.72;10.98;;;;;;;23.75;50.36;100726.27;4912278;58;1142763;-79
2021/06/19 02:22:08;;;;;;;14.58;9.83;;;;;;;23.71;50.51;100727.17;4912458;58;1142806;-79
2021/06/19 02:27:16;;;;;;;16.80;9.15;;;;;;;23.68;50.62;100726.20;4912462;58;1140902;-79
2021/06/19 02:32:22;;;;;;;11.03;9.68;;;;;;;23.64;50.59;100733.06;4912584;58;1141212;-82
2021/06/19 02:37:29;;;;;;;13.92;9.50;;;;;;;23.60;50.78;100728.25;4928973;58;1140863;-81
2021/06/19 02:42:35;;;;;;;11.93;10.03;;;;;;;23.54;50.91;100731.22;4937056;57;1140976;-81
2021/06/19 02:47:47;;;;;;;12.73;9.53;;;;;;;23.53;51.05;100732.25;4912315;58;1143053;-81
2021/06/19 02:52:54;;;;;;;18.32;10.68;;;;;;;23.48;51.17;100736.88;4912603;58;1140677;-81
2021/06/19 02:58:01;;;;;;;11.80;9.75;;;;;;;23.39;51.43;100738.56;4912205;58;1142761;-80
2021/06/19 03:03:08;;;;;;;13.70;9.15;;;;;;;23.30;51.51;100729.80;4912589;58;1140893;-79
2021/06/19 03:08:14;;;;;;;17.20;9.40;;;;;;;23.26;51.71;100732.56;4912708;58;1140853;-86
2021/06/19 03:13:20;;;;;;;14.98;9.75;;;;;;;23.22;52.20;100729.13;4921180;57;1140830;-80
2021/06/19 03:18:27;;;;;;;17.57;9.95;;;;;;;23.14;52.53;100736.31;4960536;58;1140895;-84
2021/06/19 03:23:33;;;;;;;14.75;8.88;;;;;;;23.10;52.36;100732.33;4958277;57;1140878;-81
2021/06/19 03:28:39;;;;;;;9.33;8.35;;;;;;;23.01;52.66;100732.16;4942180;58;1141028;-78
2021/06/19 03:33:45;;;;;;;15.33;9.67;;;;;;;22.96;53.14;100733.77;4967043;57;1138750;-84
2021/06/19 03:38:51;;;;;;;12.95;9.23;;;;;;;22.88;53.33;100725.83;4952573;58;1140762;-84
2021/06/19 03:43:57;;;;;;;17.70;9.08;;;;;;;22.84;53.62;100717.28;4923954;57;1140767;-82
2021/06/19 03:49:03;;;;;;;9.75;8.25;;;;;;;22.77;54.18;100706.42;4922714;58;1140862;-86
2021/06/19 03:54:09;;;;;;;11.93;8.68;;;;;;;22.69;54.73;100715.13;4945645;58;1138632;-89
2021/06/19 03:59:15;;;;;;;13.88;9.53;;;;;;;22.70;55.02;100714.11;4947987;58;1140791;-84
2021/06/19 04:04:21;;;;;;;19.30;8.55;;;;;;;22.74;54.71;100716.75;4970557;58;1140766;-81
2021/06/19 04:09:27;;;;;;;10.80;9.40;;;;;;;22.79;54.64;100721.06;4970603;58;1140747;-81
2021/06/19 04:14:34;;;;;;;11.18;7.55;;;;;;;22.77;54.84;100732.04;4967951;58;1140925;-82
2021/06/19 04:19:41;;;;;;;13.10;8.48;;;;;;;22.82;55.14;100729.28;4966437;58;1141093;-81
2021/06/19 04:24:46;;;;;;;16.23;8.20;;;;;;;22.85;55.34;100721.64;4966683;58;1140909;-83
2021/06/19 04:29:53;;;;;;;13.10;7.92;;;;;;;22.90;55.06;100719.22;4966282;58;1140908;-82
2021/06/19 04:34:59;;;;;;;12.47;8.28;;;;;;;22.96;55.00;100725.67;4966015;58;1140944;-80
2021/06/19 04:40:15;;;;;;;10.88;8.80;;;;;;;23.02;55.04;100726.26;4951546;58;1140888;-81
2021/06/19 04:45:15;;;;;;;9.95;8.80;;;;;;;23.04;55.34;100726.39;4878660;58;1140773;-80
2021/06/19 04:50:21;;;;;;;14.43;8.60;;;;;;;23.09;55.27;100723.08;4880841;58;1138820;-79
2021/06/19 04:55:28;;;;;;;14.93;7.60;;;;;;;23.13;55.84;100725.20;4880486;58;1140882;-81
2021/06/19 05:00:34;;;;;;;10.08;7.62;;;;;;;23.21;55.94;100725.59;4882055;58;1140846;-81
2021/06/19 05:05:40;;;;;;;9.28;7.45;;;;;;;23.31;55.61;100728.77;4853725;58;1140916;-78
2021/06/19 05:10:48;;;;;;;12.63;8.40;;;;;;;23.43;55.91;100726.34;4882032;59;1138621;-81
2021/06/19 05:15:54;;;;;;;12.20;7.47;;;;;;;23.54;55.70;100727.17;4871634;59;1140917;-80
2021/06/19 05:21:00;;;;;;;11.40;7.28;;;;;;;23.66;55.80;100726.95;4873241;59;1140846;-81
2021/06/19 05:26:06;;;;;;;18.07;8.10;;;;;;;23.81;55.98;100725.47;4880244;58;1141071;-80
2021/06/19 05:31:12;;;;;;;11.00;6.72;;;;;;;23.95;55.85;100724.50;4853503;58;1140897;-79
2021/06/19 05:36:18;;;;;;;13.08;7.30;;;;;;;24.14;55.94;100722.89;4882107;58;1140800;-82
2021/06/19 05:41:23;;;;;;;12.95;7.42;;;;;;;24.32;55.71;100721.84;4892729;58;1140773;-79
2021/06/19 05:46:29;;;;;;;12.45;7.50;;;;;;;24.50;55.64;100730.73;4981934;57;1140710;-82
2021/06/19 05:51:36;;;;;;;10.68;7.25;;;;;;;24.64;55.44;100725.66;4930845;57;1140936;-84
2021/06/19 05:56:42;;;;;;;19.15;8.43;;;;;;;24.82;55.44;100722.36;4914990;58;1140803;-78
2021/06/19 06:01:48;;;;;;;17.07;7.30;;;;;;;25.01;55.39;100726.15;4952150;57;1140703;-84
2021/06/19 06:06:54;;;;;;;9.88;7.15;;;;;;;25.21;55.23;100726.44;4940972;57;1140742;-85
2021/06/19 06:12:00;;;;;;;9.30;6.70;;;;;;;25.37;54.68;100722.98;4949079;57;1138644;-82
2021/06/19 06:17:06;;;;;;;12.98;5.72;;;;;;;25.53;54.17;100719.31;4955501;57;1138756;-83
2021/06/19 06:22:12;;;;;;;13.90;7.08;;;;;;;25.70;53.92;100718.36;4949052;57;1140741;-79
2021/06/19 06:27:18;;;;;;;7.50;6.80;;;;;;;25.88;53.92;100721.75;4995370;57;1140797;-86
2021/06/19 06:32:24;;;;;;;10.78;6.40;;;;;;;26.09;53.71;100724.17;4995631;57;1138581;-81
2021/06/19 06:37:29;;;;;;;7.05;6.30;;;;;;;26.27;52.66;100728.89;4995522;57;1140712;-83
2021/06/19 06:42:35;;;;;;;9.03;6.08;;;;;;;26.42;51.95;100725.92;4995822;57;1138780;-82
2021/06/19 06:47:42;;;;;;;9.08;6.03;;;;;;;26.54;51.47;100726.36;4970891;58;1138656;-84
2021/06/19 06:52:48;;;;;;;7.70;6.22;;;;;;;26.68;50.59;100724.91;4970860;58;1138868;-80
2021/06/19 06:57:53;;;;;;;16.37;5.80;;;;;;;26.81;50.70;100721.58;4941062;58;1138653;-76
2021/06/19 07:03:00;;;;;;;9.03;6.15;;;;;;;26.92;49.85;100721.37;4948132;58;1140938;-80
2021/06/19 07:08:06;;;;;;;15.00;5.95;;;;;;;27.02;49.90;100712.26;4962338;58;1139044;-80
2021/06/19 07:13:11;;;;;;;7.87;5.50;;;;;;;27.16;50.23;100709.73;4906738;58;1140948;-80
2021/06/19 07:18:18;;;;;;;11.57;5.70;;;;;;;27.38;49.64;100715.56;4887738;59;1138803;-77
2021/06/19 07:23:25;;;;;;;12.18;6.12;;;;;;;27.57;48.80;100717.28;4887214;59;1140924;-80
2021/06/19 07:28:31;;;;;;;17.15;6.00;;;;;;;27.76;48.41;100721.37;4887557;59;1140727;-76
2021/06/19 07:33:37;;;;;;;8.88;5.70;;;;;;;27.92;48.58;100712.60;4887755;59;1140829;-78
2021/06/19 07:38:43;;;;;;;8.03;5.83;;;;;;;28.07;47.93;100711.68;4890723;58;1138613;-77
2021/06/19 07:43:49;;;;;;;29.52;16.50;;;;;;;28.22;48.21;100712.66;4957458;58;1138976;-78
2021/06/19 07:48:54;;;;;;;6.20;4.97;;;;;;;28.40;48.62;100715.34;4890731;58;1142942;-77
2021/06/19 07:54:01;;;;;;;14.93;5.85;;;;;;;28.66;46.54;100711.39;4923437;58;1138658;-78
2021/06/19 07:59:06;;;;;;;8.70;5.65;;;;;;;28.72;46.80;100703.66;4970487;58;1140909;-79
2021/06/19 08:04:12;;;;;;;10.00;5.15;;;;;;;28.97;46.81;100690.70;4970645;58;1138744;-78
2021/06/19 08:09:17;;;;;;;6.05;3.98;;;;;;;29.19;45.13;100696.91;4970751;58;1140748;-77
2021/06/19 08:14:23;;;;;;;9.50;4.40;;;;;;;29.23;43.20;100690.76;4938551;58;1138661;-79
2021/06/19 08:19:29;;;;;;;5.90;4.60;;;;;;;29.28;43.85;100692.78;4903003;58;1138746;-81
2021/06/19 08:24:35;;;;;;;4.25;3.95;;;;;;;29.45;43.60;100691.56;4970945;58;1138772;-78
2021/06/19 08:29:41;;;;;;;12.37;4.00;;;;;;;29.73;40.98;100689.72;4970933;58;1138700;-80
2021/06/19 08:34:48;;;;;;;6.37;3.10;;;;;;;29.73;40.98;100689.72;4964860;58;1141012;-83
2021/06/19 08:39:57;;;;;;;5.08;4.67;;;;;;;29.89;40.87;100698.22;4971097;58;1138633;-81
2021/06/19 08:45:03;;;;;;;3.40;3.10;;;;;;;30.12;40.73;100691.34;4971106;58;1138734;-80
2021/06/19 08:50:13;;;;;;;6.30;3.95;;;;;;;30.29;38.78;100702.30;4990909;57;1138747;-80
2021/06/19 08:55:18;;;;;;;9.55;5.28;;;;;;;30.37;38.49;100680.09;4995274;57;1138662;-82
2021/06/19 09:05:31;;;;;;;5.80;3.50;;;;;;;30.65;37.74;100680.61;5270937;54;46100;-78
2021/06/19 09:10:38;;;;;;;11.43;8.48;;;;;;;30.71;37.19;100692.72;5035591;57;1134821;-81
2021/06/19 09:15:55;;;;;;;10.43;8.03;;;;;;;30.75;36.80;100693.06;4988649;56;1140871;-81
2021/06/19 09:21:06;;;;;;;4.25;3.85;;;;;;;30.83;36.27;100683.11;4982428;57;1141002;-80
2021/06/19 09:26:19;;;;;;;11.30;5.78;;;;;;;30.93;36.59;100679.16;5157153;55;1139173;-79
2021/06/19 09:31:46;;;;;;;10.55;5.15;;;;;;;31.13;37.43;100676.48;5113644;55;1140909;-81
2021/06/19 09:37:04;;;;;;;21.97;4.25;;;;;;;31.31;37.44;100680.31;5069481;55;1141092;-82
2021/06/19 09:42:09;;;;;;;4.83;3.02;;;;;;;31.40;35.82;100670.05;5068684;57;1140886;-81
2021/06/19 09:47:21;;;;;;;12.28;3.45;;;;;;;31.47;35.19;100665.21;5099765;55;1138759;-79
2021/06/19 09:52:31;;;;;;;7.42;3.67;;;;;;;31.57;34.62;100658.23;5161687;55;1140896;-78
2021/06/19 09:57:48;;;;;;;4.93;3.03;;;;;;;31.66;35.09;100662.20;5155212;55;1138797;-80
2021/06/19 10:02:59;;;;;;;3.08;2.87;;;;;;;31.79;34.52;100670.84;5152760;56;1139003;-79
2021/06/19 10:08:07;;;;;;;4.20;3.50;;;;;;;31.90;34.09;100673.72;5135464;56;1139004;-77
2021/06/19 10:13:14;;;;;;;3.85;3.10;;;;;;;32.00;33.83;100673.28;5139324;56;1139111;-81
2021/06/19 10:18:21;;;;;;;6.22;3.08;;;;;;;32.06;33.95;100673.64;5138136;56;1138973;-80
2021/06/19 10:23:27;;;;;;;3.08;2.75;;;;;;;32.21;34.22;100674.37;5147303;56;1138949;-78
2021/06/19 10:28:36;;;;;;;3.85;3.05;;;;;;;32.39;33.16;100681.37;5147973;56;1138768;-80
2021/06/19 10:33:42;;;;;;;3.77;3.47;;;;;;;32.46;32.70;100678.72;5148042;56;1138841;-80
2021/06/19 10:38:59;;;;;;;34.97;5.77;;;;;;;32.68;32.62;100668.24;5147797;56;1138871;-79
2021/06/19 10:44:05;;;;;;;3.62;3.33;;;;;;;32.72;31.08;100658.39;5139115;56;1140944;-80
2021/06/19 10:49:25;;;;;;;5.35;3.30;;;;;;;32.77;30.75;100651.63;5138572;55;1138806;-80
2021/06/19 10:54:30;;;;;;;4.60;3.58;;;;;;;32.77;31.67;100660.67;5058410;57;1138715;-79
2021/06/19 10:59:36;;;;;;;6.53;5.33;;;;;;;32.90;30.30;100644.86;5077082;55;1138678;-81
2021/06/19 11:04:44;;;;;;;17.40;4.60;;;;;;;32.76;30.74;100640.39;5102244;55;1138835;-81
2021/06/19 11:09:51;;;;;;;3.67;3.37;;;;;;;32.84;29.75;100638.00;4939124;57;1140924;-80
2021/06/19 11:15:08;;;;;;;11.95;4.70;;;;;;;32.97;30.29;100632.60;4920860;57;1138691;-81
2021/06/19 11:20:25;;;;;;;5.42;4.55;;;;;;;33.14;29.52;100631.06;4916704;58;1140818;-79
2021/06/19 11:25:54;;;;;;;4.60;4.03;;;;;;;33.20;28.91;100629.98;4916974;58;1138727;-78
2021/06/19 11:31:03;;;;;;;6.55;4.15;;;;;;;33.37;27.79;100618.86;4917229;58;1138956;-78
2021/06/19 11:36:16;;;;;;;10.37;3.80;;;;;;;33.58;28.93;100615.67;4917657;58;1138818;-77
2021/06/19 11:41:32;;;;;;;3.70;3.40;;;;;;;33.69;28.97;100605.83;4915676;58;1140787;-77
2021/06/19 11:46:39;;;;;;;6.45;3.55;;;;;;;33.81;28.71;100601.49;4904311;57;1138752;-78
2021/06/19 11:51:49;;;;;;;4.33;3.00;;;;;;;33.90;29.38;100597.14;4918505;56;1138667;-77
2021/06/19 11:56:55;;;;;;;6.40;4.37;;;;;;;33.61;28.65;100604.96;4962719;56;1138814;-76
2021/06/19 12:02:01;;;;;;;8.17;4.23;;;;;;;33.37;29.44;100596.92;4984961;56;1139209;-79
2021/06/19 12:07:07;;;;;;;5.12;3.62;;;;;;;33.38;29.41;100582.95;5039070;55;1138725;-80
2021/06/19 12:12:15;;;;;;;26.48;5.22;;;;;;;33.54;30.06;100590.14;5150940;55;1138727;-78
2021/06/19 12:17:20;;;;;;;3.20;3.00;;;;;;;33.60;29.89;100584.14;5075448;56;1140814;-80
2021/06/19 12:22:26;;;;;;;3.62;3.33;;;;;;;33.56;29.04;100587.13;5113670;56;1138911;-80
2021/06/19 12:27:35;;;;;;;4.87;4.00;;;;;;;33.40;29.14;100589.00;5074701;57;1138768;-80
2021/06/19 12:32:42;;;;;;;5.35;3.42;;;;;;;33.31;29.81;100587.84;5075750;56;1139020;-80
2021/06/19 12:37:58;;;;;;;4.33;3.77;;;;;;;33.19;29.97;100583.92;5045540;57;1138937;-82
2021/06/19 12:43:08;;;;;;;5.00;4.30;;;;;;;33.30;29.09;100573.06;5075669;57;1138678;-79
2021/06/19 12:48:39;;;;;;;5.60;3.60;;;;;;;33.30;29.30;100578.00;5075800;56;1138727;-83
2021/06/19 12:53:44;;;;;;;9.58;3.80;;;;;;;33.39;28.96;100569.52;5076163;56;1138967;-80
2021/06/19 12:58:51;;;;;;;4.12;3.62;;;;;;;33.58;29.17;100560.27;5075960;56;1139117;-80
2021/06/19 13:04:07;;;;;;;4.03;3.55;;;;;;;33.79;29.50;100552.92;5075808;56;1138868;-80
2021/06/19 13:09:12;;;;;;;13.98;7.65;;;;;;;33.81;28.65;100550.73;5075421;56;1138917;-81
2021/06/19 13:14:27;;;;;;;7.67;3.33;;;;;;;33.83;28.94;100555.41;5132932;55;1141001;-82
2021/06/19 13:19:39;;;;;;;5.08;3.75;;;;;;;33.77;28.03;100554.56;5104697;56;1138734;-81
2021/06/19 13:24:43;;;;;;;6.08;3.02;;;;;;;33.63;28.22;100550.66;5160613;55;1138663;-83
2021/06/19 13:30:05;;;;;;;12.65;3.25;;;;;;;33.57;28.26;100544.08;5089248;56;1138935;-82
2021/06/19 13:35:12;;;;;;;6.72;3.62;;;;;;;33.47;28.26;100537.45;5075423;56;1140872;-79
2021/06/19 13:40:22;;;;;;;3.30;3.00;;;;;;;33.51;28.75;100534.45;5075783;55;1138646;-81
2021/06/19 13:45:28;;;;;;;10.58;3.72;;;;;;;33.65;29.05;100529.81;5076281;55;1138948;-83
2021/06/19 13:50:35;;;;;;;4.15;2.85;;;;;;;33.81;27.66;100529.61;5076319;55;1140753;-79
2021/06/19 13:55:41;;;;;;;4.58;3.12;;;;;;;33.84;27.62;100522.75;5084506;57;1139105;-81
2021/06/19 14:00:47;;;;;;;14.80;3.50;;;;;;;33.89;27.97;100509.05;5061534;57;1138736;-80
2021/06/19 14:05:53;;;;;;;16.23;3.97;;;;;;;33.99;27.96;100493.12;5076189;56;1140848;-84
2021/06/19 14:10:59;;;;;;;5.20;3.30;;;;;;;34.10;28.03;100496.13;5074990;56;1140779;-81
2021/06/19 14:16:05;;;;;;;42.65;5.47;;;;;;;34.13;26.74;100490.92;5154691;56;1138611;-81
2021/06/19 14:21:14;;;;;;;16.93;3.27;;;;;;;34.12;27.17;100492.57;5161141;56;1140780;-80
2021/06/19 14:26:25;;;;;;;28.98;4.53;;;;;;;34.21;27.27;100487.64;5129614;56;1141050;-79
2021/06/19 14:31:31;;;;;;;4.15;3.60;;;;;;;34.23;26.59;100477.73;5156549;56;1140950;-78
2021/06/19 14:36:37;;;;;;;8.85;3.33;;;;;;;34.21;26.62;100474.46;5161049;56;1139108;-81
2021/06/19 14:41:44;;;;;;;11.75;3.45;;;;;;;34.16;26.67;100474.45;5161582;55;1138956;-82
2021/06/19 14:46:50;;;;;;;12.03;3.17;;;;;;;34.20;26.99;100471.44;5161424;55;1140979;-78
2021/06/19 14:51:55;;;;;;;9.03;3.02;;;;;;;34.22;26.22;100474.16;5160935;55;1141059;-81
2021/06/19 14:57:02;;;;;;;9.93;5.22;;;;;;;34.25;26.56;100465.92;5122099;56;1139114;-81
2021/06/19 15:02:09;;;;;;;3.33;3.02;;;;;;;34.34;26.79;100461.56;5128740;56;1138832;-80
2021/06/19 15:07:15;;;;;;;3.47;3.17;;;;;;;34.33;26.24;100459.91;5135454;56;1139045;-79
2021/06/19 15:12:21;;;;;;;3.98;3.60;;;;;;;34.29;25.75;100461.56;5137659;55;1138842;-83
2021/06/19 15:17:27;;;;;;;13.85;3.75;;;;;;;34.30;25.95;100451.41;5049474;57;1138671;-79
2021/06/19 15:22:33;;;;;;;4.10;3.50;;;;;;;34.28;25.88;100448.11;5049450;57;1140774;-79
2021/06/19 15:27:39;;;;;;;3.70;2.92;;;;;;;34.26;26.14;100444.78;5010799;56;1138667;-80
2021/06/19 15:32:46;;;;;;;3.52;3.17;;;;;;;34.24;25.85;100444.50;5013661;57;1138872;-78
2021/06/19 15:37:53;;;;;;;6.80;3.00;;;;;;;34.18;25.71;100447.00;5016753;56;1138892;-79
2021/06/19 15:43:02;;;;;;;6.75;3.40;;;;;;;34.20;25.25;100443.44;5021553;57;1138820;-81
2021/06/19 15:48:08;;;;;;;4.92;3.00;;;;;;;34.13;25.68;100448.92;4996672;56;1138703;-81
2021/06/19 15:53:15;;;;;;;6.87;3.08;;;;;;;34.11;26.08;100435.47;5020579;56;1138694;-79
2021/06/19 15:58:21;;;;;;;3.35;2.92;;;;;;;34.13;26.21;100433.28;4989297;57;1139126;-78
2021/06/19 16:03:28;;;;;;;4.58;4.17;;;;;;;34.08;25.64;100435.19;5041998;57;1138720;-82
2021/06/19 16:08:34;;;;;;;4.15;3.45;;;;;;;34.06;26.04;100442.91;5049218;57;1138777;-82
2021/06/19 16:13:40;;;;;;;3.62;3.27;;;;;;;34.05;25.97;100430.28;5059563;55;1138800;-83
2021/06/19 16:18:46;;;;;;;8.73;3.08;;;;;;;33.98;26.53;100435.21;5133970;56;1138863;-79
2021/06/19 16:23:52;;;;;;;3.02;2.77;;;;;;;33.97;26.84;100435.77;5155331;55;1138899;-80
2021/06/19 16:28:59;;;;;;;4.65;3.67;;;;;;;33.94;26.50;100437.68;5225475;55;1138918;-78
2021/06/19 16:34:05;;;;;;;5.72;3.30;;;;;;;33.88;26.59;100423.16;5225406;55;1138817;-82
2021/06/19 16:39:11;;;;;;;3.62;3.22;;;;;;;33.86;26.85;100421.23;5225514;55;1138698;-81
2021/06/19 16:44:17;;;;;;;3.65;2.67;;;;;;;33.80;26.65;100416.84;5225495;55;1138832;-79
2021/06/19 16:49:23;;;;;;;3.67;3.37;;;;;;;33.75;27.13;100418.20;5225306;55;1138792;-78
2021/06/19 16:54:29;;;;;;;6.42;3.25;;;;;;;33.70;27.32;100414.07;5166053;55;1138721;-79
2021/06/19 16:59:35;;;;;;;4.83;3.92;;;;;;;33.67;27.28;100416.53;5178411;55;1138896;-79
2021/06/19 17:04:41;;;;;;;3.30;3.00;;;;;;;33.61;27.43;100420.39;5201742;55;1138901;-83
2021/06/19 17:09:47;;;;;;;5.30;2.90;;;;;;;33.55;27.52;100418.18;5192705;55;1138900;-80
2021/06/19 17:14:54;;;;;;;4.83;3.20;;;;;;;33.50;27.82;100422.28;5129070;56;1138991;-82
2021/06/19 17:19:59;;;;;;;7.97;3.12;;;;;;;33.39;27.86;100420.08;5127698;56;1139336;-80
2021/06/19 17:25:06;;;;;;;6.10;2.83;;;;;;;33.34;27.97;100421.98;5126788;56;1138959;-82
2021/06/19 17:30:16;;;;;;;4.20;3.22;;;;;;;33.35;28.60;100420.89;5132899;55;1138879;-83
2021/06/19 17:35:22;;;;;;;3.20;2.90;;;;;;;33.30;28.22;100420.36;5148239;55;1138851;-82
2021/06/19 17:40:28;;;;;;;5.17;3.20;;;;;;;33.24;28.42;100417.83;5176997;55;1138871;-80
2021/06/19 17:45:35;;;;;;;16.55;2.98;;;;;;;33.20;28.83;100418.91;5178784;55;1138722;-80
2021/06/19 17:50:40;;;;;;;7.67;3.25;;;;;;;33.16;28.92;100412.31;5211869;55;1140820;-80
2021/06/19 17:55:47;;;;;;;4.53;2.65;;;;;;;33.06;29.39;100407.64;5126910;55;1139197;-85
2021/06/19 18:00:53;;;;;;;89.70;7.85;;;;;;;33.00;29.53;100412.82;5100573;56;1138716;-84
2021/06/19 18:06:00;;;;;;;12.25;3.87;;;;;;;32.90;29.66;100415.54;5057959;55;1140854;-83
2021/06/19 18:11:07;;;;;;;8.58;2.75;;;;;;;32.82;29.84;100411.96;5189698;55;1140799;-81
2021/06/19 18:16:13;;;;;;;16.12;3.40;;;;;;;32.75;30.09;100420.96;5094709;55;1138880;-80
2021/06/19 18:21:19;;;;;;;8.88;3.75;;;;;;;32.66;30.27;100432.13;5108019;56;1140927;-78
2021/06/19 18:26:24;;;;;;;5.78;4.00;;;;;;;32.59;30.68;100428.25;5144321;56;1138841;-82
2021/06/19 18:31:31;;;;;;;16.40;5.28;;;;;;;32.48;31.21;100436.97;5093870;56;1138928;-78
2021/06/19 18:36:37;;;;;;;20.57;5.70;;;;;;;32.31;31.75;100430.84;5096113;56;1140821;-75
2021/06/19 18:41:43;;;;;;;35.43;8.53;;;;;;;32.18;32.08;100436.75;5077855;57;1140951;-78
2021/06/19 18:46:49;;;;;;;20.43;6.00;;;;;;;32.08;32.35;100436.12;5078073;57;1140951;-79
2021/06/19 18:51:55;;;;;;;11.43;5.33;;;;;;;31.99;32.68;100439.61;5077868;56;1140814;-79
2021/06/19 18:57:02;;;;;;;12.90;4.55;;;;;;;31.90;33.26;100453.50;5077937;57;1141000;-80
2021/06/19 19:02:11;;;;;;;10.10;4.78;;;;;;;31.77;33.96;100456.96;5077606;57;1140860;-80
2021/06/19 19:07:17;;;;;;;11.48;5.15;;;;;;;31.61;34.15;100451.04;5077883;57;1140962;-79
2021/06/19 19:12:27;;;;;;;10.32;5.55;;;;;;;31.47;34.85;100459.38;5077656;57;1140820;-79
2021/06/19 19:17:32;;;;;;;7.25;3.52;;;;;;;31.25;35.55;100458.58;5077576;57;1140788;-78
2021/06/19 19:22:38;;;;;;;7.95;3.75;;;;;;;31.15;36.50;100473.50;5078001;57;1138865;-80
2021/06/19 19:27:44;;;;;;;21.70;4.53;;;;;;;30.97;37.03;100478.18;5077914;57;1138654;-79
2021/06/19 19:32:50;;;;;;;13.60;4.60;;;;;;;30.72;37.50;100487.38;5107265;56;1140814;-79
2021/06/19 19:37:55;;;;;;;9.10;4.03;;;;;;;30.59;37.86;100488.58;5119408;56;1141000;-79
2021/06/19 19:43:02;;;;;;;4.90;4.50;;;;;;;30.43;38.16;100485.30;5115909;56;1138879;-79
2021/06/19 19:48:08;;;;;;;16.95;4.40;;;;;;;30.27;38.59;100484.78;5091444;56;1138646;-80
2021/06/19 19:53:13;;;;;;;13.18;5.47;;;;;;;30.16;38.89;100489.27;5094305;56;1140917;-78
2021/06/19 19:58:19;;;;;;;6.22;4.50;;;;;;;30.10;38.95;100487.52;5096931;56;1140880;-77
2021/06/19 20:03:25;;;;;;;7.60;4.40;;;;;;;29.92;39.73;100479.57;5133761;55;1138676;-78
2021/06/19 20:08:32;;;;;;;14.15;4.92;;;;;;;29.92;39.73;100479.57;5124926;55;1138666;-78
2021/06/19 20:13:38;;;;;;;5.83;4.10;;;;;;;29.73;39.91;100475.70;5123247;56;1140676;-78
2021/06/19 20:18:44;;;;;;;6.05;5.17;;;;;;;29.55;40.50;100473.19;5071461;56;1138744;-78
2021/06/19 20:23:49;;;;;;;10.38;5.37;;;;;;;29.45;40.95;100465.38;5065716;55;1138652;-79
2021/06/19 20:28:55;;;;;;;10.70;5.08;;;;;;;29.38;41.24;100455.94;5049951;57;1141118;-77
2021/06/19 20:34:01;;;;;;;10.60;5.08;;;;;;;29.32;41.52;100450.13;5036765;56;1141024;-78
2021/06/19 20:39:09;;;;;;;13.88;5.10;;;;;;;29.19;41.70;100442.21;5053711;56;1140798;-78
2021/06/19 20:44:15;;;;;;;9.65;5.12;;;;;;;29.13;41.89;100453.56;5053486;56;1140861;-79
2021/06/19 20:49:21;;;;;;;7.60;5.33;;;;;;;29.08;41.96;100456.70;5053638;56;1138907;-78
2021/06/19 20:54:27;;;;;;;8.93;4.95;;;;;;;29.01;42.15;100451.42;5111146;56;1138748;-78
2021/06/19 20:59:33;;;;;;;8.38;5.20;;;;;;;28.90;42.20;100443.55;5092906;56;1138720;-78
2021/06/19 21:04:40;;;;;;;11.75;4.97;;;;;;;28.81;42.24;100443.66;5096477;56;1138770;-78
2021/06/19 21:09:48;;;;;;;5.10;4.65;;;;;;;28.74;42.40;100446.16;5096632;56;1140831;-78
2021/06/19 21:14:54;;;;;;;6.80;5.14;;;;;;;28.62;42.45;100448.38;5088179;56;1138926;-78
2021/06/19 21:20:00;;;;;;;9.60;5.58;;;;;;;28.53;42.64;100457.16;5110767;56;1138989;-78
2021/06/19 21:25:07;;;;;;;12.75;4.90;;;;;;;28.43;42.84;100453.66;5067353;55;1139084;-78
2021/06/19 21:30:16;;;;;;;20.60;7.92;;;;;;;28.37;43.07;100456.52;5049650;56;1140790;-77
2021/06/19 21:35:22;;;;;;;16.77;9.03;;;;;;;28.28;43.29;100450.06;5066039;56;1140835;-78
2021/06/19 21:40:29;;;;;;;17.27;6.87;;;;;;;28.21;43.08;100452.09;5045876;56;1140736;-78
2021/06/19 21:45:35;;;;;;;10.53;6.35;;;;;;;28.11;42.86;100459.95;5046417;56;1140892;-78
2021/06/19 21:50:42;;;;;;;11.75;6.03;;;;;;;28.05;42.57;100456.83;5128114;56;1140733;-78
2021/06/19 21:55:48;;;;;;;12.00;5.90;;;;;;;28.02;42.33;100460.02;4988947;56;1140933;-78
2021/06/19 22:00:55;;;;;;;16.20;6.35;;;;;;;27.98;42.16;100456.09;4991562;57;1141165;-78
2021/06/19 22:06:01;;;;;;;8.95;5.53;;;;;;;27.95;41.97;100450.63;4993128;57;1140915;-77
2021/06/19 22:11:07;;;;;;;10.65;4.78;;;;;;;27.92;41.64;100451.09;4993778;57;1139006;-78
2021/06/19 22:16:13;;;;;;;15.23;4.80;;;;;;;27.89;41.32;100456.98;4984260;57;1140722;-78
2021/06/19 22:21:19;;;;;;;10.88;5.30;;;;;;;27.82;40.91;100458.97;4993856;57;1140764;-78
2021/06/19 22:26:25;;;;;;;9.48;5.65;;;;;;;27.74;40.73;100455.24;5047759;56;1140848;-77
2021/06/19 22:31:32;;;;;;;9.03;5.25;;;;;;;27.64;40.78;100449.03;5075879;56;1138703;-77
2021/06/19 22:36:38;;;;;;;6.58;4.87;;;;;;;27.57;40.85;100451.53;5076387;56;1138731;-78
2021/06/19 22:41:43;;;;;;;8.63;4.62;;;;;;;27.50;40.86;100446.71;5076222;56;1139003;-78
2021/06/19 22:46:50;;;;;;;5.22;4.80;;;;;;;27.38;41.01;100439.03;5076292;56;1138717;-77
2021/06/19 22:51:56;;;;;;;14.18;5.40;;;;;;;27.29;41.11;100442.08;5110642;56;1138966;-77
2021/06/19 22:57:05;;;;;;;6.20;4.80;;;;;;;27.18;41.31;100436.08;5160968;55;1140891;-77
2021/06/19 23:02:09;;;;;;;11.83;5.05;;;;;;;27.14;41.48;100431.33;5156818;56;1138685;-77
2021/06/19 23:07:15;;;;;;;6.80;4.85;;;;;;;27.13;41.68;100439.17;5160863;56;1140899;-77
2021/06/19 23:12:21;;;;;;;5.10;4.60;;;;;;;27.11;42.03;100441.28;5160963;55;1138799;-77